Data for 06/30/2013

Time Sea-Level Adjusted Pressure Absolute Pressure Temperature Relative Humidity Dew Point   
(mb) (inHg) (mb) (inHg) (C) (F) (%) (C) (F)
00:05 1023 30.21 852 25.16 15.8 60.5 73 11.1 52
00:10 1023 30.21 852 25.16 15.7 60.3 73 10.9 51.7
00:15 1023 30.21 852 25.16 15.8 60.5 71 10.7 51.3
00:20 1023 30.21 852 25.16 16 60.8 71 10.9 51.6
00:25 1023 30.21 852 25.16 16 60.8 71 10.8 51.4
00:30 1023 30.21 852 25.16 16 60.8 71 10.9 51.6
00:35 1023 30.21 852 25.16 15.9 60.7 72 10.9 51.7
00:40 1023 30.21 852 25.16 15.9 60.5 72 10.8 51.4
00:45 1023 30.21 852 25.16 15.9 60.5 71 10.8 51.4
00:50 1023 30.21 852 25.16 15.8 60.5 72 10.7 51.3
00:55 1023 30.21 852 25.16 15.8 60.5 72 10.7 51.3
01:00 1023 30.21 852 25.16 15.7 60.2 73 10.9 51.5
01:05 1023 30.21 852 25.16 15.4 59.8 75 11 51.8
01:10 1023 30.21 852 25.16 15.1 59.3 76 10.9 51.6
01:15 1023 30.21 852 25.16 15 59 76 10.9 51.6
01:20 1023 30.21 853 25.19 15 58.9 76 10.8 51.5
01:25 1023 30.21 853 25.19 14.9 58.8 76 10.8 51.5
01:30 1023 30.21 852 25.16 14.8 58.6 78 10.9 51.7
01:35 1023 30.21 852 25.16 14.5 58.2 78 10.8 51.4
01:40 1023 30.21 852 25.16 14.4 57.8 79 10.7 51.3
01:45 1023 30.21 853 25.19 14.1 57.5 79 10.6 51
01:50 1023 30.21 853 25.19 14.1 57.4 79 10.6 51
01:55 1023 30.21 852 25.16 13.9 57.1 81 10.7 51.2
02:00 1023 30.21 853 25.19 13.5 56.3 82 10.5 50.9
02:05 1023 30.21 852 25.16 13.7 56.6 79 10.1 50.1
02:10 1023 30.21 852 25.16 13.8 56.9 78 10 50
02:15 1023 30.21 852 25.16 13.9 56.9 76 9.8 49.6
02:20 1023 30.21 852 25.16 14.2 57.5 74 9.7 49.5
02:25 1023 30.21 852 25.16 14.3 57.7 75 9.9 49.9
02:30 1023 30.21 852 25.16 14.2 57.5 76 10.1 50.1
02:35 1023 30.21 852 25.16 14 57.1 77 10 50
02:40 1023 30.21 852 25.16 13.9 57 77 10 49.9
02:45 1023 30.21 852 25.16 13.7 56.6 78 10 50
02:50 1023 30.21 852 25.16 13.4 56.2 78 9.8 49.6
02:55 1023 30.21 852 25.16 13.4 56.2 78 9.7 49.5
03:00 1023 30.21 852 25.16 13.3 56 76 9.3 48.7
03:05 1023 30.21 852 25.16 13.8 56.8 75 9.5 49.1
03:10 1023 30.21 852 25.16 13.9 57.1 75 9.6 49.4
03:15 1023 30.21 852 25.16 14.1 57.3 76 10 49.9
03:20 1023 30.21 852 25.16 13.8 56.8 78 10 50
03:25 1023 30.21 852 25.16 13.7 56.6 77 9.8 49.6
03:30 1023 30.21 852 25.16 13.6 56.5 78 9.9 49.8
03:35 1023 30.21 852 25.16 13.4 56.2 79 9.9 49.8
03:40 1023 30.21 852 25.16 13.4 56.1 79 9.9 49.9
03:45 1023 30.21 852 25.16 13.2 55.8 80 9.9 49.7
03:50 1023 30.21 852 25.16 13.3 55.9 78 9.6 49.3
03:55 1023 30.21 852 25.16 13.3 55.9 79 9.7 49.5
04:00 1023 30.21 852 25.16 13.2 55.7 79 9.5 49.2
04:05 1023 30.21 852 25.16 13.2 55.8 79 9.6 49.3
04:10 1023 30.21 852 25.16 13.1 55.7 78 9.5 49
04:15 1023 30.21 852 25.16 13.1 55.6 78 9.4 49
04:20 1023 30.21 852 25.16 12.9 55.2 79 9.4 49
04:25 1023 30.21 852 25.16 12.8 55 80 9.4 49
04:30 1023 30.21 852 25.16 12.8 55 79 9.3 48.8
04:35 1023 30.21 852 25.16 12.8 55.1 79 9.3 48.8
04:40 1023 30.21 852 25.16 12.8 55.1 79 9.2 48.6
04:45 1023 30.21 852 25.16 12.8 55.1 79 9.2 48.6
04:50 1023 30.21 852 25.16 12.6 54.7 79 9.2 48.5
04:55 1023 30.21 853 25.19 12.5 54.6 79 9.1 48.4
05:00 1023 30.21 853 25.19 12.7 54.9 78 9.1 48.3
05:05 1023 30.21 853 25.19 12.9 55.2 78 9.2 48.6
05:10 1023 30.21 853 25.19 13 55.5 78 9.3 48.8
05:15 1024 30.24 853 25.19 13.1 55.5 78 9.4 49
05:20 1024 30.24 853 25.19 13 55.4 78 9.2 48.5
05:25 1024 30.24 853 25.19 13.1 55.6 77 9.2 48.5
05:30 1024 30.24 853 25.19 13.3 55.9 76 9.2 48.6
05:35 1024 30.24 853 25.19 13.5 56.3 75 9.2 48.6
05:40 1024 30.24 853 25.19 13.7 56.6 75 9.3 48.8
05:45 1024 30.24 853 25.19 13.6 56.5 75 9.3 48.8
05:50 1024 30.24 853 25.19 13.6 56.5 75 9.4 48.8
05:55 1024 30.24 853 25.19 13.9 57 75 9.6 49.3
06:00 1024 30.24 853 25.19 14.2 57.5 74 9.7 49.5
06:05 1024 30.24 853 25.19 14.3 57.8 74 9.7 49.5
06:10 1024 30.24 853 25.19 14.6 58.4 73 9.8 49.7
06:15 1024 30.24 853 25.19 14.9 58.8 72 9.8 49.7
06:20 1024 30.24 853 25.19 15 59 72 10.1 50.2
06:25 1023 30.21 853 25.19 15.1 59.2 72 10.1 50.2
06:30 1023 30.21 853 25.19 15.2 59.4 71 10.1 50.2
06:35 1023 30.21 853 25.19 15.6 60 71 10.3 50.6
06:40 1023 30.21 853 25.19 15.9 60.6 70 10.4 50.8
06:45 1023 30.21 853 25.19 16.2 61.2 68 10.4 50.8
06:50 1023 30.21 853 25.19 16.6 61.8 67 10.5 50.9
06:55 1023 30.21 853 25.19 17 62.7 65 10.5 50.9
07:00 1023 30.21 853 25.19 17 62.5 67 10.8 51.4
07:05 1023 30.21 853 25.19 17.4 63.3 62 10.2 50.3
07:10 1023 30.21 853 25.19 17.5 63.5 65 10.8 51.5
07:15 1023 30.21 853 25.19 17.9 64.1 63 10.8 51.5
07:20 1023 30.21 853 25.19 17.9 64.3 62 10.7 51.2
07:25 1023 30.21 853 25.19 18.4 65.1 61 10.8 51.5
07:30 1023 30.21 853 25.19 18.5 65.3 61 10.9 51.5
07:35 1024 30.24 853 25.19 18.5 65.3 60 10.8 51.4
07:40 1024 30.24 853 25.19 19.1 66.3 59 10.9 51.7
07:45 1024 30.24 853 25.19 19.4 66.9 58 11.1 51.9
07:50 1024 30.24 853 25.19 19.9 67.7 57 11.2 52.2
07:55 1024 30.24 853 25.19 20.4 68.7 54 10.9 51.6
08:00 1024 30.24 853 25.19 20.7 69.3 54 11.1 52
08:05 1023 30.21 853 25.19 21.1 69.9 54 11.6 52.8
08:10 1023 30.21 853 25.19 21.2 70.1 54 11.7 53
08:15 1023 30.21 853 25.19 21.2 70.1 52 11.2 52.1
08:20 1023 30.21 853 25.19 21.8 71.2 49 10.8 51.5
08:25 1023 30.21 853 25.19 22.1 71.7 49 11 51.8
08:30 1023 30.21 853 25.19 21.6 70.9 50 10.9 51.6
08:35 1023 30.21 853 25.19 22.1 71.9 49 11.1 51.9
08:40 1024 30.24 853 25.19 22.7 72.8 48 11.2 52.1
08:45 1024 30.24 853 25.19 22.5 72.4 49 11.3 52.3
08:50 1024 30.24 853 25.19 22.3 72.1 52 12.2 54
08:55 1024 30.24 853 25.19 21.9 71.4 54 12.2 54
09:00 1024 30.24 853 25.19 21.6 70.8 54 12.1 53.8
09:05 1024 30.24 853 25.19 21.4 70.4 55 12.1 53.8
09:10 1024 30.24 853 25.19 22.2 71.9 52 12 53.6
09:15 1024 30.24 853 25.19 22.2 72 53 12.4 54.3
09:20 1024 30.24 853 25.19 22.3 72.2 51 11.9 53.4
09:25 1024 30.24 853 25.19 22.7 72.8 51 12.1 53.8
09:30 1024 30.24 853 25.19 22.6 72.7 51 12 53.6
09:35 1024 30.24 853 25.19 22.9 73.2 48 11.5 52.6
09:40 1024 30.24 853 25.19 23.3 73.9 44 10.6 51.1
09:45 1024 30.24 853 25.19 23.1 73.6 49 12 53.6
09:50 1024 30.24 853 25.19 22.4 72.4 51 12 53.6
09:55 1024 30.24 853 25.19 22.6 72.7 49 11.4 52.5
10:00 1024 30.24 853 25.19 23.7 74.7 45 11.3 52.3
10:05 1024 30.24 853 25.19 24.2 75.5 47 12.5 54.4
10:10 1024 30.24 853 25.19 24.1 75.3 47 12.2 53.9
10:15 1024 30.24 853 25.19 24 75.3 48 12.5 54.6
10:20 1024 30.24 853 25.19 22.6 72.7 48 11.1 52.1
10:25 1024 30.24 853 25.19 23 73.3 49 11.8 53.3
10:30 1024 30.24 853 25.19 22.9 73.3 48 11.4 52.5
10:35 1024 30.24 853 25.19 23.6 74.5 46 11.5 52.6
10:40 1024 30.24 853 25.19 24.3 75.8 44 11.4 52.5
10:45 1024 30.24 853 25.19 25.3 77.5 44 12.4 54.2
10:50 1024 30.24 853 25.19 23.9 75.1 47 12.3 54.1
10:55 1024 30.24 853 25.19 24 75.2 47 12.3 54.2
11:00 1024 30.24 853 25.19 23.6 74.6 48 12.1 53.7
11:05 1024 30.24 853 25.19 24.2 75.6 48 12.6 54.7
11:10 1024 30.24 853 25.19 23.8 74.9 49 12.5 54.6
11:15 1024 30.24 853 25.19 23.7 74.6 50 12.7 54.8
11:20 1024 30.24 853 25.19 23.9 75.1 46 11.8 53.3
11:25 1024 30.24 853 25.19 24.5 76 45 12 53.6
11:30 1024 30.24 853 25.19 25.5 77.9 40 11.2 52.2
11:35 1024 30.24 853 25.19 25.7 78.3 41 11.8 53.3
11:40 1024 30.24 853 25.19 25 76.9 43 11.7 53
11:45 1023 30.21 853 25.19 25.9 78.7 42 12.1 53.7
11:50 1023 30.21 853 25.19 26.2 79.1 41 12.3 54.1
11:55 1023 30.21 853 25.19 26.3 79.3 39 11.5 52.7
12:00 1023 30.21 853 25.19 26.9 80.5 36 10.9 51.6
12:05 1023 30.21 853 25.19 28 82.3 36 11.7 53
12:10 1023 30.21 853 25.19 28.6 83.4 33 11 51.8
12:15 1023 30.21 853 25.19 28.9 83.9 34 11.7 53
12:20 1023 30.21 853 25.19 27.9 82.1 33 10.3 50.5
12:25 1023 30.21 853 25.19 27.4 81.3 33 10.1 50.1
12:30 1023 30.21 853 25.19 28.2 82.8 31 9.8 49.7
12:35 1023 30.21 853 25.19 27.7 81.9 34 10.6 51.1
12:40 1023 30.21 853 25.19 27.8 82.1 33 10.3 50.6
12:45 1023 30.21 852 25.16 28.3 82.9 30 9.5 49.1
12:50 1023 30.21 852 25.16 27.5 81.5 33 9.9 49.9
12:55 1023 30.21 852 25.16 28 82.4 29 8.6 47.5
13:00 1023 30.21 852 25.16 28.7 83.6 29 9.4 48.9
13:05 1023 30.21 852 25.16 29.6 85.3 28 9.5 49.1
13:10 1023 30.21 852 25.16 30 86.1 28 9.7 49.4
13:15 1023 30.21 852 25.16 29.7 85.5 27 8.9 48.1
13:20 1023 30.21 852 25.16 30.5 87 25 8.5 47.4
13:25 1023 30.21 852 25.16 30.6 87.2 26 9 48.2
13:30 1023 30.21 852 25.16 30.2 86.3 25 8.6 47.5
13:35 1023 30.21 852 25.16 29.7 85.4 25 8.1 46.5
13:40 1023 30.21 852 25.16 29.5 85.2 26 8.5 47.2
13:45 1023 30.21 852 25.16 28.8 83.8 26 7.5 45.5
13:50 1023 30.21 852 25.16 28.5 83.3 27 8.2 46.7
13:55 1023 30.21 852 25.16 29.6 85.2 27 8.8 47.8
14:00 1023 30.21 852 25.16 30.1 86.1 28 9.7 49.4
14:05 1023 30.21 852 25.16 30.7 87.2 25 8.7 47.6
14:10 1023 30.21 852 25.16 30.4 86.8 27 9.5 49.1
14:15 1023 30.21 852 25.16 30.6 87 26 9.4 48.9
14:20 1023 30.21 852 25.16 30 86 26 8.5 47.3
14:25 1023 30.21 852 25.16 30.2 86.3 25 8.4 47.2
14:30 1023 30.21 852 25.16 30.5 86.8 25 8.3 47
14:35 1023 30.21 852 25.16 30.2 86.4 25 8.3 46.9
14:40 1023 30.21 852 25.16 30 85.9 25 7.9 46.3
14:45 1023 30.21 852 25.16 29.8 85.6 23 6.9 44.4
14:50 1023 30.21 852 25.16 29.8 85.6 24 7.4 45.4
14:55 1023 30.21 852 25.16 29.4 84.9 26 8.1 46.5
15:00 1023 30.21 852 25.16 29.1 84.4 28 8.8 47.9
15:05 1023 30.21 852 25.16 29.8 85.6 26 8.3 46.9
15:10 1023 30.21 852 25.16 30.5 87 26 9.3 48.7
15:15 1023 30.21 852 25.16 30.3 86.6 26 9 48.1
15:20 1023 30.21 852 25.16 31 87.7 25 8.9 48.1
15:25 1022 30.18 852 25.16 30.4 86.8 27 9.5 49.1
15:30 1022 30.18 852 25.16 30.3 86.5 27 9.7 49.5
15:35 1022 30.18 852 25.16 29.8 85.7 27 9.3 48.7
15:40 1022 30.18 852 25.16 30.2 86.3 27 9.2 48.6
15:45 1022 30.18 852 25.16 30.3 86.5 27 9.7 49.5
15:50 1022 30.18 852 25.16 29.5 85.1 28 9.4 48.9
15:55 1022 30.18 852 25.16 29.9 85.9 26 8.8 47.9
16:00 1022 30.18 852 25.16 30.6 87.1 26 9 48.2
16:05 1022 30.18 852 25.16 30.8 87.5 25 8.8 47.9
16:10 1022 30.18 852 25.16 30.6 87.2 27 9.8 49.6
16:15 1022 30.18 852 25.16 30.2 86.3 27 9.4 48.9
16:20 1022 30.18 852 25.16 30.2 86.4 27 9.7 49.4
16:25 1022 30.18 852 25.16 30.5 86.9 27 9.7 49.4
16:30 1022 30.18 851 25.13 30.6 87.1 27 9.8 49.6
16:35 1022 30.18 851 25.13 30.8 87.5 27 10.2 50.4
16:40 1022 30.18 851 25.13 30.6 87.1 28 10.2 50.4
16:45 1022 30.18 851 25.13 30.6 87 26 9.5 49.1
16:50 1022 30.18 851 25.13 31 87.8 24 8.4 47.1
16:55 1022 30.18 851 25.13 30.5 87 24 8.1 46.6
17:00 1022 30.18 851 25.13 30 86.1 25 8.2 46.7
17:05 1022 30.18 851 25.13 30.8 87.5 24 8.5 47.4
17:10 1022 30.18 851 25.13 31.3 88.3 23 7.8 46.1
17:15 1022 30.18 851 25.13 30.9 87.5 25 8.9 47.9
17:20 1022 30.18 851 25.13 30.8 87.4 25 8.9 47.9
17:25 1022 30.18 851 25.13 30.7 87.2 25 8.9 48
17:30 1022 30.18 851 25.13 31.2 88.1 24 8.8 47.8
17:35 1022 30.18 851 25.13 31.3 88.4 25 9.3 48.8
17:40 1022 30.18 851 25.13 31.3 88.3 24 9 48.2
17:45 1022 30.18 851 25.13 30.8 87.5 25 8.7 47.6
17:50 1022 30.18 852 25.16 30.7 87.3 24 8.4 47.1
17:55 1022 30.18 852 25.16 30.8 87.5 26 9.2 48.5
18:00 1022 30.18 852 25.16 30.5 86.9 25 8.9 47.9
18:05 1022 30.18 852 25.16 30.5 86.8 26 8.9 48
18:10 1022 30.18 851 25.13 30.4 86.7 27 9.5 49.1
18:15 1022 30.18 851 25.13 29.8 85.6 28 9.7 49.4
18:20 1022 30.18 851 25.13 29.7 85.5 28 9.4 48.9
18:25 1022 30.18 851 25.13 29.6 85.3 28 9.5 49.1
18:30 1022 30.18 852 25.16 29.9 85.8 30 10.6 51
18:35 1022 30.18 851 25.13 29.7 85.4 29 10 49.9
18:40 1022 30.18 852 25.16 29.2 84.6 30 10.1 50.1
18:45 1022 30.18 852 25.16 28.6 83.4 34 11.4 52.4
18:50 1022 30.18 852 25.16 27.8 82 36 11.6 52.9
18:55 1022 30.18 852 25.16 27.3 81.1 37 11.6 52.8
19:00 1022 30.18 852 25.16 27 80.7 37 11.5 52.7
19:05 1022 30.18 852 25.16 26.9 80.3 39 11.8 53.3
19:10 1022 30.18 852 25.16 26.7 80 40 12.1 53.8
19:15 1022 30.18 852 25.16 26.5 79.6 41 12.4 54.3
19:20 1022 30.18 852 25.16 26.3 79.4 41 12.2 54
19:25 1022 30.18 852 25.16 26.3 79.3 43 12.8 55
19:30 1023 30.21 852 25.16 26.1 79 43 12.7 54.9
19:35 1023 30.21 852 25.16 25.9 78.7 42 12.4 54.4
19:40 1023 30.21 852 25.16 25.8 78.4 42 12.2 53.9
19:45 1023 30.21 852 25.16 25.7 78.2 42 12.1 53.8
19:50 1023 30.21 852 25.16 25.5 77.8 43 12.2 54
19:55 1023 30.21 852 25.16 25.2 77.4 43 12.1 53.7
20:00 1023 30.21 852 25.16 24.9 76.9 45 12.5 54.4
20:05 1023 30.21 852 25.16 24.5 76.2 46 12.2 54
20:10 1023 30.21 852 25.16 24.2 75.6 45 11.7 53.1
20:15 1023 30.21 852 25.16 24.2 75.5 45 11.6 52.9
20:20 1023 30.21 852 25.16 24.1 75.4 45 11.5 52.7
20:25 1023 30.21 852 25.16 24.1 75.4 45 11.5 52.8
20:30 1023 30.21 852 25.16 24.2 75.5 44 11.3 52.3
20:35 1023 30.21 852 25.16 24.3 75.7 44 11.3 52.4
20:40 1023 30.21 852 25.16 24.3 75.7 44 11.5 52.8
20:45 1023 30.21 852 25.16 24.1 75.5 45 11.6 52.8
20:50 1023 30.21 852 25.16 24 75.2 45 11.5 52.7
20:55 1023 30.21 852 25.16 24.1 75.3 46 11.9 53.3
21:00 1023 30.21 852 25.16 24 75.3 47 12.1 53.8
21:05 1023 30.21 853 25.19 24 75.1 48 12.4 54.4
21:10 1023 30.21 853 25.19 23.8 74.9 49 12.7 54.9
21:15 1023 30.21 853 25.19 23.7 74.7 50 12.9 55.2
21:20 1023 30.21 853 25.19 23.6 74.4 51 13.1 55.6
21:25 1024 30.24 853 25.19 23.5 74.2 52 13.2 55.8
21:30 1024 30.24 853 25.19 23.3 73.9 54 13.6 56.4
21:35 1024 30.24 853 25.19 23.1 73.6 55 13.7 56.6
21:40 1024 30.24 853 25.19 22.9 73.3 56 13.7 56.7
21:45 1024 30.24 853 25.19 22.9 73.2 56 13.8 56.9
21:50 1024 30.24 853 25.19 22.8 73 56 13.8 56.9
21:55 1024 30.24 853 25.19 22.8 73 57 13.9 57.1
22:00 1024 30.24 853 25.19 22.7 72.9 57 13.9 57.1
22:05 1024 30.24 853 25.19 22.6 72.7 57 13.9 57
22:10 1024 30.24 853 25.19 22.6 72.7 57 13.8 56.9
22:15 1024 30.24 853 25.19 22.6 72.7 57 13.8 56.9
22:20 1024 30.24 853 25.19 22.7 72.8 56 13.7 56.7
22:25 1024 30.24 853 25.19 22.7 72.8 57 13.8 56.8
22:30 1024 30.24 853 25.19 22.6 72.7 57 13.8 56.8
22:35 1024 30.24 853 25.19 22.6 72.6 57 13.7 56.6
22:40 1024 30.24 853 25.19 22.6 72.6 56 13.5 56.4
22:45 1024 30.24 853 25.19 22.5 72.5 56 13.6 56.4
22:50 1024 30.24 853 25.19 22.5 72.4 56 13.5 56.3
22:55 1024 30.24 853 25.19 22.4 72.4 57 13.6 56.4
23:00 1024 30.24 853 25.19 22.4 72.4 56 13.4 56.1
23:05 1024 30.24 853 25.19 22.4 72.4 56 13.5 56.3
23:10 1024 30.24 853 25.19 22.4 72.3 57 13.5 56.3
23:15 1024 30.24 853 25.19 22.3 72.2 56 13.4 56.1
23:20 1024 30.24 853 25.19 22.3 72.1 57 13.4 56.1
23:25 1024 30.24 853 25.19 22.2 72 56 13.2 55.8
23:30 1024 30.24 853 25.19 22.2 72 55 13 55.4
23:35 1024 30.24 853 25.19 22.2 71.9 56 13.1 55.6
23:40 1024 30.24 853 25.19 22.1 71.8 56 13.1 55.6
23:45 1024 30.24 853 25.19 22.1 71.7 56 13 55.4
23:50 1024 30.24 853 25.19 22 71.7 56 12.9 55.2
23:55 1024 30.24 853 25.19 22.1 71.7 56 13 55.4
24:00 1024 30.24 853 25.19 22 71.6 56 12.9 55.3